createdAt,value
2018-05-21T00:00:39.502Z,20.29
2018-05-21T00:01:39.425Z,20.32
2018-05-21T00:02:39.364Z,20.38
2018-05-21T00:03:39.326Z,20.36
2018-05-21T00:04:39.236Z,20.42
2018-05-21T00:05:39.172Z,20.36
2018-05-21T00:06:39.124Z,20.23
2018-05-21T00:07:39.053Z,20.36
2018-05-21T00:08:38.986Z,20.28
2018-05-21T00:09:38.926Z,20.28
2018-05-21T00:10:38.859Z,20.29
2018-05-21T00:11:38.800Z,20.28
2018-05-21T00:12:38.732Z,20.38
2018-05-21T00:13:38.673Z,20.23
2018-05-21T00:14:38.594Z,20.32
2018-05-21T00:15:38.542Z,20.26
2018-05-21T00:16:38.543Z,20.14
2018-05-21T00:17:38.414Z,20.11
2018-05-21T00:18:38.360Z,20.17
2018-05-21T00:19:38.289Z,20.11
2018-05-21T00:20:38.218Z,20.10
2018-05-21T00:21:38.161Z,20.05
2018-05-21T00:22:38.095Z,19.95
2018-05-21T00:23:38.031Z,19.87
2018-05-21T00:24:37.968Z,19.83
2018-05-21T00:25:37.905Z,19.83
2018-05-21T00:26:37.855Z,19.78
2018-05-21T00:27:37.777Z,19.80
2018-05-21T00:28:37.713Z,19.78
2018-05-21T00:29:37.637Z,19.77
2018-05-21T00:30:37.572Z,19.73
2018-05-21T00:31:37.515Z,19.66
2018-05-21T00:32:37.458Z,19.63
2018-05-21T00:33:37.383Z,19.68
2018-05-21T00:34:37.313Z,19.71
2018-05-21T00:35:37.261Z,19.73
2018-05-21T00:36:37.199Z,19.73
2018-05-21T00:37:37.113Z,19.65
2018-05-21T00:38:37.060Z,19.66
2018-05-21T00:39:36.995Z,19.68
2018-05-21T00:40:36.931Z,19.63
2018-05-21T00:41:36.868Z,19.62
2018-05-21T00:42:36.814Z,19.65
2018-05-21T00:43:36.731Z,19.71
2018-05-21T00:44:36.668Z,19.66
2018-05-21T00:45:36.617Z,19.65
2018-05-21T00:46:36.552Z,19.68
2018-05-21T00:47:36.501Z,19.73
2018-05-21T00:48:36.419Z,19.71
2018-05-21T00:49:36.351Z,19.63
2018-05-21T00:50:36.297Z,19.66
2018-05-21T00:51:36.222Z,19.61
2018-05-21T00:52:36.157Z,19.76
2018-05-21T00:53:36.096Z,19.71
2018-05-21T00:54:36.018Z,19.74
2018-05-21T00:55:35.968Z,19.77
2018-05-21T00:56:35.965Z,19.77
2018-05-21T00:57:35.825Z,19.74
2018-05-21T00:58:35.770Z,19.76
2018-05-21T00:59:35.729Z,19.73
2018-05-21T01:00:35.634Z,19.76
2018-05-21T01:01:35.569Z,19.81
2018-05-21T01:02:35.535Z,19.80
2018-05-21T01:03:35.471Z,19.71
2018-05-21T01:04:35.393Z,19.74
2018-05-21T01:05:35.323Z,19.61
2018-05-21T01:06:35.268Z,19.65
2018-05-21T01:07:35.184Z,19.61
2018-05-21T01:08:35.131Z,19.74
2018-05-21T01:09:35.077Z,19.65
2018-05-21T01:10:35.006Z,19.66
2018-05-21T01:11:34.930Z,19.77
2018-05-21T01:12:34.873Z,19.63
2018-05-21T01:13:34.801Z,19.77
2018-05-21T01:14:34.751Z,19.78
2018-05-21T01:15:34.730Z,19.77
2018-05-21T01:16:34.605Z,19.73
2018-05-21T01:17:34.540Z,19.80
2018-05-21T01:18:34.475Z,19.81
2018-05-21T01:19:34.408Z,19.88
2018-05-21T01:20:34.360Z,19.91
2018-05-21T01:21:34.283Z,19.94
2018-05-21T01:22:34.230Z,19.94
2018-05-21T01:23:34.160Z,19.94
2018-05-21T01:24:34.097Z,19.91
2018-05-21T01:25:34.048Z,19.88
2018-05-21T01:26:33.970Z,19.91
2018-05-21T01:27:33.922Z,19.92
2018-05-21T01:28:33.842Z,19.95
2018-05-21T01:29:33.773Z,19.99
2018-05-21T01:30:33.716Z,19.96
2018-05-21T01:31:33.645Z,20.01
2018-05-21T01:32:33.592Z,19.96
2018-05-21T01:33:33.513Z,19.94
2018-05-21T01:34:33.464Z,20.03
2018-05-21T01:35:33.380Z,19.99
2018-05-21T01:36:33.321Z,20.08
2018-05-21T01:37:33.272Z,20.05
2018-05-21T01:38:33.200Z,19.95
2018-05-21T01:39:33.158Z,20.03
2018-05-21T01:40:33.083Z,20.01
2018-05-21T01:41:33.004Z,20.03
2018-05-21T01:42:32.943Z,19.94
2018-05-21T01:43:32.884Z,20.01
2018-05-21T01:44:32.810Z,20.03
2018-05-21T01:45:32.747Z,19.98
2018-05-21T01:46:32.685Z,20.02
2018-05-21T01:47:32.624Z,19.98
2018-05-21T01:48:32.567Z,20.03
2018-05-21T01:49:32.511Z,20.06
2018-05-21T01:50:32.431Z,20.01
2018-05-21T01:51:32.370Z,20.02
2018-05-21T01:52:32.298Z,20.11
2018-05-21T01:53:32.243Z,20.17
2018-05-21T01:54:32.180Z,20.18
2018-05-21T01:55:32.103Z,20.08
2018-05-21T01:56:32.058Z,20.10
2018-05-21T01:57:31.973Z,20.11
2018-05-21T01:58:31.929Z,20.16
2018-05-21T01:59:31.857Z,20.13
2018-05-21T02:00:31.798Z,20.01
2018-05-21T02:01:31.731Z,19.96
2018-05-21T02:02:31.660Z,19.92
2018-05-21T02:03:31.606Z,19.91
2018-05-21T02:04:31.538Z,19.92
2018-05-21T02:05:31.481Z,19.91
2018-05-21T02:06:31.409Z,19.91
2018-05-21T02:07:31.397Z,19.91
2018-05-21T02:08:31.283Z,19.91
2018-05-21T02:09:31.228Z,19.84
2018-05-21T02:10:31.156Z,19.94
2018-05-21T02:11:31.090Z,19.77
2018-05-21T02:12:31.022Z,19.80
2018-05-21T02:13:30.966Z,19.78
2018-05-21T02:14:30.883Z,19.80
2018-05-21T02:15:30.823Z,19.83
2018-05-21T02:16:30.780Z,19.81
2018-05-21T02:17:30.714Z,19.92
2018-05-21T02:18:30.636Z,19.92
2018-05-21T02:19:30.579Z,19.87
2018-05-21T02:20:30.547Z,19.87
2018-05-21T02:21:30.435Z,19.91
2018-05-21T02:22:30.393Z,19.88
2018-05-21T02:23:30.320Z,19.94
2018-05-21T02:24:30.291Z,19.95
2018-05-21T02:25:30.191Z,19.96
2018-05-21T02:26:30.142Z,20.03
2018-05-21T02:27:30.060Z,20.01
2018-05-21T02:28:30.000Z,19.98
2018-05-21T02:29:29.939Z,20.02
2018-05-21T02:30:29.883Z,20.02
2018-05-21T02:31:29.811Z,20.01
2018-05-21T02:32:29.738Z,19.98
2018-05-21T02:33:29.670Z,19.91
2018-05-21T02:34:29.619Z,20.02
2018-05-21T02:35:29.552Z,19.99
2018-05-21T02:36:29.495Z,19.91
2018-05-21T02:37:29.418Z,19.91
2018-05-21T02:38:29.356Z,19.95
2018-05-21T02:39:29.301Z,19.92
2018-05-21T02:40:29.233Z,19.95
2018-05-21T02:41:29.167Z,19.84
2018-05-21T02:42:29.109Z,19.95
2018-05-21T02:43:29.037Z,19.91
2018-05-21T02:44:28.965Z,19.96
2018-05-21T02:45:28.930Z,19.83
2018-05-21T02:46:28.849Z,19.78
2018-05-21T02:47:28.787Z,19.81
2018-05-21T02:48:28.725Z,19.78
2018-05-21T02:49:28.656Z,19.83
2018-05-21T02:50:28.601Z,19.80
2018-05-21T02:51:28.530Z,19.76
2018-05-21T02:52:28.463Z,19.76
2018-05-21T02:53:28.397Z,19.73
2018-05-21T02:54:28.368Z,19.76
2018-05-21T02:55:28.264Z,19.81
2018-05-21T02:56:28.214Z,19.78
2018-05-21T02:57:28.135Z,19.74
2018-05-21T02:58:28.075Z,19.83
2018-05-21T02:59:28.015Z,19.81
2018-05-21T03:00:27.950Z,19.88
2018-05-21T03:01:27.891Z,19.80
2018-05-21T03:02:27.826Z,19.81
2018-05-21T03:03:27.765Z,19.84
2018-05-21T03:04:27.699Z,19.81
2018-05-21T03:05:27.634Z,19.94
2018-05-21T03:06:27.565Z,19.87
2018-05-21T03:07:27.545Z,19.86
2018-05-21T03:08:27.436Z,19.96
2018-05-21T03:09:27.372Z,19.87
2018-05-21T03:10:27.305Z,19.92
2018-05-21T03:11:27.250Z,19.95
2018-05-21T03:12:27.178Z,19.80
2018-05-21T03:13:27.122Z,19.81
2018-05-21T03:14:27.049Z,19.78
2018-05-21T03:15:26.994Z,19.88
2018-05-21T03:16:26.923Z,19.77
2018-05-21T03:17:26.866Z,19.78
2018-05-21T03:18:26.789Z,19.78
2018-05-21T03:19:26.738Z,19.80
2018-05-21T03:20:26.662Z,19.71
2018-05-21T03:21:26.597Z,19.76
2018-05-21T03:22:26.541Z,19.73
2018-05-21T03:23:26.485Z,19.74
2018-05-21T03:24:26.400Z,19.68
2018-05-21T03:25:26.354Z,19.77
2018-05-21T03:26:26.281Z,19.74
2018-05-21T03:27:26.219Z,19.80
2018-05-21T03:28:26.167Z,19.84
2018-05-21T03:29:26.093Z,19.80
2018-05-21T03:30:26.048Z,19.76
2018-05-21T03:31:25.976Z,19.84
2018-05-21T03:32:25.903Z,19.76
2018-05-21T03:33:25.837Z,19.74
2018-05-21T03:34:25.782Z,19.78
2018-05-21T03:35:25.713Z,19.73
2018-05-21T03:36:25.654Z,19.71
2018-05-21T03:37:25.600Z,19.65
2018-05-21T03:38:25.517Z,19.71
2018-05-21T03:39:25.459Z,19.66
2018-05-21T03:40:25.394Z,19.68
2018-05-21T03:41:25.344Z,19.66
2018-05-21T03:42:25.255Z,19.50
2018-05-21T03:43:25.195Z,19.48
2018-05-21T03:44:25.150Z,19.40
2018-05-21T03:45:25.068Z,19.51
2018-05-21T03:46:25.012Z,19.50
2018-05-21T03:47:24.933Z,19.59
2018-05-21T03:48:24.877Z,19.50
2018-05-21T03:49:24.813Z,19.48
2018-05-21T03:50:24.743Z,19.50
2018-05-21T03:51:24.679Z,19.59
2018-05-21T03:52:24.614Z,19.61
2018-05-21T03:53:24.556Z,19.55
2018-05-21T03:54:24.481Z,19.48
2018-05-21T03:55:24.434Z,19.50
2018-05-21T03:56:24.359Z,19.61
2018-05-21T03:57:24.292Z,19.61
2018-05-21T03:58:24.242Z,19.61
2018-05-21T03:59:24.174Z,19.58
2018-05-21T04:00:24.093Z,19.59
2018-05-21T04:01:24.032Z,19.66
2018-05-21T04:02:23.972Z,19.74
2018-05-21T04:03:23.909Z,19.73
2018-05-21T04:04:23.927Z,19.66
2018-05-21T04:05:23.787Z,19.43
2018-05-21T04:06:23.711Z,19.25
2018-05-21T04:07:23.662Z,19.22
2018-05-21T04:08:23.583Z,19.31
2018-05-21T04:09:23.530Z,19.32
2018-05-21T04:10:23.467Z,19.40
2018-05-21T04:11:23.398Z,19.43
2018-05-21T04:12:23.342Z,19.46
2018-05-21T04:13:23.274Z,19.43
2018-05-21T04:14:23.206Z,19.55
2018-05-21T04:15:23.144Z,19.48
2018-05-21T04:16:23.078Z,19.43
2018-05-21T04:17:23.027Z,19.37
2018-05-21T04:18:22.959Z,19.41
2018-05-21T04:19:22.877Z,19.43
2018-05-21T04:20:22.827Z,19.43
2018-05-21T04:21:22.762Z,19.41
2018-05-21T04:22:22.700Z,19.41
2018-05-21T04:23:22.624Z,19.39
2018-05-21T04:24:22.567Z,19.43
2018-05-21T04:25:22.524Z,19.50
2018-05-21T04:26:22.429Z,19.54
2018-05-21T04:27:22.361Z,19.50
2018-05-21T04:28:22.313Z,19.48
2018-05-21T04:29:22.248Z,19.59
2018-05-21T04:30:22.188Z,19.61
2018-05-21T04:31:22.125Z,19.62
2018-05-21T04:32:22.063Z,19.58
2018-05-21T04:33:21.997Z,19.61
2018-05-21T04:34:21.925Z,19.74
2018-05-21T04:35:21.863Z,19.68
2018-05-21T04:36:21.804Z,19.77
2018-05-21T04:37:21.744Z,19.76
2018-05-21T04:38:21.676Z,19.78
2018-05-21T04:39:21.603Z,19.66
2018-05-21T04:40:21.535Z,19.66
2018-05-21T04:41:21.501Z,19.61
2018-05-21T04:42:21.399Z,19.56
2018-05-21T04:43:21.360Z,19.62
2018-05-21T04:44:21.284Z,19.68
2018-05-21T04:45:21.214Z,19.76
2018-05-21T04:46:21.149Z,19.58
2018-05-21T04:47:21.105Z,19.71
2018-05-21T04:48:21.062Z,19.71
2018-05-21T04:49:20.953Z,19.69
2018-05-21T04:50:20.913Z,19.74
2018-05-21T04:51:20.834Z,19.69
2018-05-21T04:52:20.767Z,19.61
2018-05-21T04:53:20.709Z,19.69
2018-05-21T04:54:20.648Z,19.74
2018-05-21T04:55:20.580Z,19.78
2018-05-21T04:56:20.507Z,19.76
2018-05-21T04:57:20.441Z,19.77
2018-05-21T04:58:20.388Z,19.77
2018-05-21T04:59:20.316Z,19.76
2018-05-21T05:00:20.252Z,19.76
2018-05-21T05:01:20.186Z,19.74
2018-05-21T05:02:20.131Z,19.68
2018-05-21T05:03:20.063Z,19.74
2018-05-21T05:04:20.005Z,19.71
2018-05-21T05:05:19.930Z,19.73
2018-05-21T05:06:19.861Z,19.80
2018-05-21T05:07:19.812Z,19.76
2018-05-21T05:08:19.733Z,19.76
2018-05-21T05:09:19.685Z,19.76
2018-05-21T05:10:19.623Z,19.76
2018-05-21T05:11:19.551Z,19.76
2018-05-21T05:12:19.485Z,19.76
2018-05-21T05:13:19.430Z,19.62
2018-05-21T05:14:19.357Z,19.63
2018-05-21T05:15:19.303Z,19.63
2018-05-21T05:16:19.516Z,19.65
2018-05-21T05:17:19.162Z,19.66
2018-05-21T05:18:19.098Z,19.59
2018-05-21T05:19:19.032Z,19.76
2018-05-21T05:20:18.975Z,19.69
2018-05-21T05:21:18.916Z,19.73
2018-05-21T05:22:18.872Z,19.65
2018-05-21T05:23:18.808Z,19.71
2018-05-21T05:24:18.732Z,19.74
2018-05-21T05:25:18.666Z,19.62
2018-05-21T05:26:18.579Z,19.40
2018-05-21T05:27:18.534Z,19.31
2018-05-21T05:28:18.463Z,19.28
2018-05-21T05:29:18.410Z,19.23
2018-05-21T05:30:18.329Z,19.06
2018-05-21T05:31:18.269Z,19.06
2018-05-21T05:32:18.199Z,19.08
2018-05-21T05:33:18.131Z,19.07
2018-05-21T05:34:18.072Z,19.06
2018-05-21T05:35:18.019Z,19.11
2018-05-21T05:36:17.943Z,19.08
2018-05-21T05:37:17.884Z,19.07
2018-05-21T05:38:17.824Z,19.02
2018-05-21T05:39:17.760Z,19.14
2018-05-21T05:40:17.686Z,19.06
2018-05-21T05:41:17.623Z,19.02
2018-05-21T05:42:17.566Z,19.11
2018-05-21T05:43:17.505Z,19.10
2018-05-21T05:44:17.421Z,19.16
2018-05-21T05:45:17.376Z,19.21
2018-05-21T05:46:17.301Z,19.16
2018-05-21T05:47:17.236Z,19.23
2018-05-21T05:48:17.160Z,19.22
2018-05-21T05:49:17.113Z,19.37
2018-05-21T05:50:17.047Z,19.29
2018-05-21T05:51:17.005Z,19.32
2018-05-21T05:52:16.918Z,19.39
2018-05-21T05:53:16.846Z,19.37
2018-05-21T05:54:16.788Z,19.47
2018-05-21T05:55:16.725Z,19.43
2018-05-21T05:56:16.661Z,19.51
2018-05-21T05:57:16.593Z,19.54
2018-05-21T05:58:16.520Z,19.48
2018-05-21T05:59:16.459Z,19.43
2018-05-21T06:00:16.402Z,19.54
2018-05-21T06:01:16.324Z,19.50
2018-05-21T06:02:16.275Z,19.37
2018-05-21T06:03:16.212Z,19.39
2018-05-21T06:04:16.146Z,19.36
2018-05-21T06:05:16.080Z,19.50
2018-05-21T06:06:16.021Z,19.55
2018-05-21T06:07:15.947Z,19.76
2018-05-21T06:08:15.871Z,19.69
2018-05-21T06:09:15.822Z,19.74
2018-05-21T06:10:15.748Z,19.56
2018-05-21T06:11:15.689Z,19.74
2018-05-21T06:12:15.620Z,19.71
2018-05-21T06:13:15.563Z,19.63
2018-05-21T06:14:15.503Z,19.76
2018-05-21T06:15:15.421Z,19.91
2018-05-21T06:16:15.378Z,19.98
2018-05-21T06:17:15.295Z,20.10
2018-05-21T06:18:15.238Z,20.13
2018-05-21T06:19:15.174Z,20.03
2018-05-21T06:20:15.117Z,20.05
2018-05-21T06:21:15.059Z,20.08
2018-05-21T06:22:14.979Z,19.92
2018-05-21T06:23:14.928Z,19.76
2018-05-21T06:24:14.861Z,19.71
2018-05-21T06:25:14.797Z,19.59
2018-05-21T06:26:14.733Z,19.56
2018-05-21T06:27:14.665Z,19.47
2018-05-21T06:28:14.611Z,19.40
2018-05-21T06:29:14.536Z,19.40
2018-05-21T06:30:14.471Z,19.31
2018-05-21T06:31:14.416Z,19.28
2018-05-21T06:32:14.342Z,19.33
2018-05-21T06:33:14.279Z,19.37
2018-05-21T06:34:14.274Z,19.43
2018-05-21T06:35:14.164Z,19.39
2018-05-21T06:36:14.086Z,19.43
2018-05-21T06:37:14.024Z,19.62
2018-05-21T06:38:13.952Z,19.62
2018-05-21T06:39:13.901Z,19.78
2018-05-21T06:40:13.839Z,19.80
2018-05-21T06:41:13.772Z,19.74
2018-05-21T06:42:13.702Z,19.81
2018-05-21T06:43:13.636Z,19.80
2018-05-21T06:44:13.578Z,19.88
2018-05-21T06:45:13.503Z,19.88
2018-05-21T06:46:13.447Z,19.96
2018-05-21T06:47:13.382Z,19.98
2018-05-21T06:48:13.316Z,20.13
2018-05-21T06:49:13.261Z,20.11
2018-05-21T06:50:13.198Z,20.17
2018-05-21T06:51:13.140Z,20.26
2018-05-21T06:52:13.065Z,20.43
2018-05-21T06:53:13.000Z,20.70
2018-05-21T06:54:12.928Z,20.69
2018-05-21T06:55:12.879Z,20.87
2018-05-21T06:56:12.817Z,20.89
2018-05-21T06:57:12.774Z,20.80
2018-05-21T06:58:12.686Z,20.85
2018-05-21T06:59:12.629Z,20.80
2018-05-21T07:00:12.558Z,20.82
2018-05-21T07:01:12.534Z,20.82
2018-05-21T07:02:12.424Z,20.95
2018-05-21T07:03:12.364Z,20.92
2018-05-21T07:04:12.315Z,20.95
2018-05-21T07:05:12.243Z,20.92
2018-05-21T07:06:12.176Z,20.98
2018-05-21T07:07:12.124Z,20.97
2018-05-21T07:08:12.054Z,21.19
2018-05-21T07:09:12.014Z,21.10
2018-05-21T07:10:11.939Z,21.32
2018-05-21T07:11:11.873Z,21.37
2018-05-21T07:12:11.810Z,21.40
2018-05-21T07:13:11.742Z,21.52
2018-05-21T07:14:11.675Z,21.61
2018-05-21T07:15:11.609Z,21.56
2018-05-21T07:16:11.552Z,21.62
2018-05-21T07:17:11.493Z,21.65
2018-05-21T07:18:11.432Z,21.68
2018-05-21T07:19:11.419Z,21.68
2018-05-21T07:20:11.305Z,21.80
2018-05-21T07:21:11.237Z,21.80
2018-05-21T07:22:11.182Z,21.62
2018-05-21T07:23:11.119Z,21.59
2018-05-21T07:24:11.053Z,21.58
2018-05-21T07:25:11.007Z,21.52
2018-05-21T07:26:10.934Z,21.32
2018-05-21T07:27:10.880Z,21.27
2018-05-21T07:28:10.813Z,21.22
2018-05-21T07:29:10.757Z,21.31
2018-05-21T07:30:10.682Z,21.34
2018-05-21T07:31:10.650Z,21.32
2018-05-21T07:32:10.560Z,21.31
2018-05-21T07:33:10.499Z,21.31
2018-05-21T07:34:10.441Z,21.34
2018-05-21T07:35:10.375Z,21.34
2018-05-21T07:36:10.316Z,21.35
2018-05-21T07:37:10.265Z,21.47
2018-05-21T07:38:10.198Z,21.35
2018-05-21T07:39:10.125Z,21.52
2018-05-21T07:40:10.070Z,21.58
2018-05-21T07:41:10.012Z,21.52
2018-05-21T07:42:09.949Z,21.64
2018-05-21T07:43:09.874Z,21.75
2018-05-21T07:44:09.827Z,21.86
2018-05-21T07:45:09.765Z,21.80
2018-05-21T07:46:09.710Z,21.74
2018-05-21T07:47:09.634Z,21.69
2018-05-21T07:48:09.599Z,21.77
2018-05-21T07:49:09.513Z,21.56
2018-05-21T07:50:09.461Z,21.42
2018-05-21T07:51:09.393Z,21.53
2018-05-21T07:52:09.327Z,21.67
2018-05-21T07:53:09.261Z,21.54
2018-05-21T07:54:09.211Z,21.58
2018-05-21T07:55:09.146Z,21.59
2018-05-21T07:56:09.080Z,21.61
2018-05-21T07:57:09.026Z,21.54
2018-05-21T07:58:09.042Z,21.58
2018-05-21T07:59:08.906Z,21.69
2018-05-21T08:00:08.834Z,21.68
2018-05-21T08:01:08.768Z,21.84
2018-05-21T08:02:08.718Z,21.83
2018-05-21T08:03:08.722Z,21.84
2018-05-21T08:04:08.593Z,22.02
2018-05-21T08:05:08.549Z,22.15
2018-05-21T08:06:08.456Z,22.09
2018-05-21T08:07:08.394Z,21.94
2018-05-21T08:08:08.334Z,21.53
2018-05-21T08:09:08.270Z,21.40
2018-05-21T08:10:08.222Z,21.42
2018-05-21T08:11:08.150Z,21.47
2018-05-21T08:12:08.086Z,21.43
2018-05-21T08:13:08.034Z,21.58
2018-05-21T08:14:07.970Z,21.54
2018-05-21T08:15:07.905Z,21.72
2018-05-21T08:16:07.870Z,21.72
2018-05-21T08:17:07.795Z,21.88
2018-05-21T08:18:07.729Z,21.88
2018-05-21T08:19:07.652Z,22.00
2018-05-21T08:20:07.605Z,21.99
2018-05-21T08:21:07.536Z,21.99
2018-05-21T08:22:07.496Z,22.02
2018-05-21T08:23:07.414Z,22.05
2018-05-21T08:24:07.363Z,22.03
2018-05-21T08:25:07.283Z,22.07
2018-05-21T08:26:07.218Z,22.14
2018-05-21T08:27:07.178Z,22.28
2018-05-21T08:28:07.117Z,22.42
2018-05-21T08:29:07.054Z,22.51
2018-05-21T08:30:06.976Z,22.60
2018-05-21T08:31:06.916Z,22.62
2018-05-21T08:32:06.863Z,22.65
2018-05-21T08:33:06.802Z,22.55
2018-05-21T08:34:06.734Z,22.47
2018-05-21T08:35:06.676Z,22.52
2018-05-21T08:36:06.613Z,22.68
2018-05-21T08:37:06.598Z,22.68
2018-05-21T08:38:06.502Z,22.64
2018-05-21T08:39:06.443Z,22.64
2018-05-21T08:40:06.361Z,22.70
2018-05-21T08:41:06.309Z,22.67
2018-05-21T08:42:06.251Z,22.70
2018-05-21T08:43:06.191Z,22.64
2018-05-21T08:44:06.122Z,22.65
2018-05-21T08:45:06.066Z,22.62
2018-05-21T08:46:06.003Z,22.68
2018-05-21T08:47:05.946Z,22.49
2018-05-21T08:48:05.890Z,22.57
2018-05-21T08:49:05.822Z,22.57
2018-05-21T08:50:05.762Z,22.46
2018-05-21T08:51:05.695Z,22.33
2018-05-21T08:52:05.651Z,22.35
2018-05-21T08:53:05.566Z,22.40
2018-05-21T08:54:05.527Z,22.36
2018-05-21T08:55:05.507Z,22.46
2018-05-21T08:56:05.397Z,22.52
2018-05-21T08:57:05.344Z,22.60
2018-05-21T08:58:05.272Z,22.62
2018-05-21T08:59:05.220Z,22.65
2018-05-21T09:00:05.153Z,22.77
2018-05-21T09:01:05.090Z,22.80
2018-05-21T09:02:05.026Z,22.79
2018-05-21T09:03:04.975Z,22.76
2018-05-21T09:04:04.898Z,22.70
2018-05-21T09:05:04.848Z,22.73
2018-05-21T09:06:04.785Z,22.68
2018-05-21T09:07:04.732Z,22.65
2018-05-21T09:08:04.652Z,22.67
2018-05-21T09:09:04.595Z,22.65
2018-05-21T09:10:04.574Z,22.67
2018-05-21T09:11:04.468Z,22.75
2018-05-21T09:12:04.420Z,22.77
2018-05-21T09:13:04.344Z,22.80
2018-05-21T09:14:04.292Z,22.73
2018-05-21T09:15:04.227Z,22.68
2018-05-21T09:16:04.175Z,22.88
2018-05-21T09:17:04.095Z,22.75
2018-05-21T09:18:04.040Z,22.85
2018-05-21T09:19:04.001Z,22.86
2018-05-21T09:20:03.919Z,22.83
2018-05-21T09:21:03.862Z,22.67
2018-05-21T09:22:03.805Z,22.67
2018-05-21T09:23:03.731Z,22.72
2018-05-21T09:24:03.676Z,22.68
2018-05-21T09:25:03.606Z,22.64
2018-05-21T09:26:03.573Z,22.67
2018-05-21T09:27:03.496Z,22.72
2018-05-21T09:28:03.438Z,22.75
2018-05-21T09:29:03.364Z,22.80
2018-05-21T09:30:03.318Z,22.82
2018-05-21T09:31:03.273Z,22.85
2018-05-21T09:32:03.190Z,22.83
2018-05-21T09:33:03.126Z,22.82
2018-05-21T09:34:03.063Z,22.85
2018-05-21T09:35:03.011Z,22.83
2018-05-21T09:36:02.949Z,22.79
2018-05-21T09:37:02.874Z,22.86
2018-05-21T09:38:02.825Z,22.91
2018-05-21T09:39:02.753Z,22.98
2018-05-21T09:40:02.701Z,23.05
2018-05-21T09:41:02.635Z,23.00
2018-05-21T09:42:02.617Z,23.01
2018-05-21T09:43:02.512Z,22.95
2018-05-21T09:44:02.457Z,22.80
2018-05-21T09:45:02.383Z,22.80
2018-05-21T09:46:02.325Z,22.83
2018-05-21T09:47:02.265Z,22.85
2018-05-21T09:48:02.208Z,22.85
2018-05-21T09:49:02.152Z,22.83
2018-05-21T09:50:02.096Z,22.86
2018-05-21T09:51:02.033Z,22.86
2018-05-21T09:52:01.968Z,22.86
2018-05-21T09:53:01.901Z,22.94
2018-05-21T09:54:01.841Z,22.97
2018-05-21T09:55:01.838Z,23.09
2018-05-21T09:56:01.725Z,23.01
2018-05-21T09:57:01.682Z,22.85
2018-05-21T09:58:01.595Z,22.85
2018-05-21T09:59:01.536Z,22.75
2018-05-21T10:00:01.478Z,22.67
2018-05-21T10:01:01.411Z,22.61
2018-05-21T10:02:01.350Z,22.67
2018-05-21T10:03:01.298Z,22.61
2018-05-21T10:04:01.226Z,22.72
2018-05-21T10:05:01.169Z,22.79
2018-05-21T10:06:01.100Z,22.80
2018-05-21T10:07:01.040Z,22.79
2018-05-21T10:08:00.991Z,22.75
2018-05-21T10:09:00.920Z,22.82
2018-05-21T10:10:00.858Z,22.77
2018-05-21T10:11:00.795Z,22.73
2018-05-21T10:12:00.737Z,22.83
2018-05-21T10:13:00.699Z,22.88
2018-05-21T10:14:00.617Z,22.95
2018-05-21T10:15:00.565Z,23.00
2018-05-21T10:16:00.497Z,22.94
2018-05-21T10:17:00.429Z,22.98
2018-05-21T10:18:00.362Z,22.94
2018-05-21T10:19:00.309Z,23.05
2018-05-21T10:20:00.249Z,23.13
2018-05-21T10:21:00.179Z,23.10
2018-05-21T10:22:00.116Z,23.09
2018-05-21T10:23:00.063Z,23.31
2018-05-21T10:23:59.995Z,23.31
2018-05-21T10:24:59.925Z,23.23
2018-05-21T10:25:59.910Z,23.40
2018-05-21T10:26:59.816Z,23.38
2018-05-21T10:27:59.744Z,23.43
2018-05-21T10:28:59.694Z,23.40
2018-05-21T10:29:59.626Z,23.38
2018-05-21T10:30:59.579Z,23.38
2018-05-21T10:31:59.505Z,23.54
2018-05-21T10:32:59.455Z,23.40
2018-05-21T10:33:59.389Z,23.39
2018-05-21T10:34:59.320Z,23.50
2018-05-21T10:35:59.257Z,23.54
2018-05-21T10:36:59.215Z,23.51
2018-05-21T10:37:59.143Z,23.58
2018-05-21T10:38:59.078Z,23.57
2018-05-21T10:39:59.016Z,23.61
2018-05-21T10:40:58.956Z,23.61
2018-05-21T10:41:58.889Z,23.38
2018-05-21T10:42:58.836Z,23.42
2018-05-21T10:43:58.773Z,23.48
2018-05-21T10:44:58.710Z,23.51
2018-05-21T10:45:58.646Z,23.50
2018-05-21T10:46:58.596Z,23.60
2018-05-21T10:47:58.523Z,23.63
2018-05-21T10:48:58.502Z,23.73
2018-05-21T10:49:58.426Z,23.70
2018-05-21T10:50:58.345Z,23.73
2018-05-21T10:51:58.274Z,23.57
2018-05-21T10:52:58.224Z,23.60
2018-05-21T10:53:58.157Z,23.72
2018-05-21T10:54:58.100Z,23.78
2018-05-21T10:55:58.069Z,23.85
2018-05-21T10:56:57.970Z,23.83
2018-05-21T10:57:57.927Z,23.83
2018-05-21T10:58:57.864Z,23.79
2018-05-21T10:59:57.794Z,23.72
2018-05-21T11:00:57.726Z,23.73
2018-05-21T11:01:57.666Z,23.76
2018-05-21T11:02:57.604Z,23.88
2018-05-21T11:03:57.542Z,23.93
2018-05-21T11:04:57.494Z,23.94
2018-05-21T11:05:57.429Z,23.97
2018-05-21T11:06:57.362Z,24.06
2018-05-21T11:07:57.300Z,23.95
2018-05-21T11:08:57.246Z,23.98
2018-05-21T11:09:57.191Z,23.91
2018-05-21T11:10:57.127Z,23.87
2018-05-21T11:11:57.062Z,23.95
2018-05-21T11:12:56.991Z,23.95
2018-05-21T11:13:56.946Z,24.02
2018-05-21T11:14:56.870Z,24.00
2018-05-21T11:15:56.808Z,24.08
2018-05-21T11:16:56.754Z,24.05
2018-05-21T11:17:56.757Z,24.06
2018-05-21T11:18:56.634Z,24.05
2018-05-21T11:19:56.568Z,24.08
2018-05-21T11:20:56.508Z,24.18
2018-05-21T11:21:56.450Z,24.15
2018-05-21T11:22:56.393Z,24.08
2018-05-21T11:23:56.327Z,24.10
2018-05-21T11:24:56.273Z,24.18
2018-05-21T11:25:56.202Z,24.15
2018-05-21T11:26:56.143Z,24.16
2018-05-21T11:27:56.097Z,24.18
2018-05-21T11:28:56.032Z,24.18
2018-05-21T11:29:55.959Z,24.31
2018-05-21T11:30:55.911Z,24.21
2018-05-21T11:31:55.946Z,24.08
2018-05-21T11:32:55.784Z,24.16
2018-05-21T11:33:55.718Z,24.12
2018-05-21T11:34:55.654Z,24.03
2018-05-21T11:35:55.605Z,24.00
2018-05-21T11:36:55.571Z,24.02
2018-05-21T11:37:55.468Z,24.10
2018-05-21T11:38:55.419Z,24.09
2018-05-21T11:39:55.363Z,24.08
2018-05-21T11:40:55.297Z,24.08
2018-05-21T11:41:55.235Z,24.15
2018-05-21T11:42:55.164Z,24.08
2018-05-21T11:43:55.104Z,24.10
2018-05-21T11:44:55.047Z,24.13
2018-05-21T11:45:54.998Z,24.22
2018-05-21T11:46:54.925Z,24.22
2018-05-21T11:47:54.870Z,24.09
2018-05-21T11:48:54.808Z,24.05
2018-05-21T11:49:54.752Z,24.20
2018-05-21T11:50:54.673Z,24.13
2018-05-21T11:51:54.631Z,24.21
2018-05-21T11:52:54.556Z,24.18
2018-05-21T11:53:54.492Z,24.25
2018-05-21T11:54:54.433Z,24.31
2018-05-21T11:55:54.368Z,24.40
2018-05-21T11:56:54.316Z,24.40
2018-05-21T11:57:54.257Z,24.32
2018-05-21T11:58:54.197Z,24.35
2018-05-21T11:59:54.126Z,24.32
2018-05-21T12:00:54.079Z,24.37
2018-05-21T12:01:54.008Z,24.42
2018-05-21T12:02:53.957Z,24.43
2018-05-21T12:03:53.884Z,24.35
2018-05-21T12:04:53.832Z,24.32
2018-05-21T12:05:53.770Z,24.37
2018-05-21T12:06:53.699Z,24.35
2018-05-21T12:07:53.634Z,24.47
2018-05-21T12:08:53.585Z,24.35
2018-05-21T12:09:53.523Z,24.34
2018-05-21T12:10:53.452Z,24.30
2018-05-21T12:11:53.411Z,24.34
2018-05-21T12:12:53.358Z,24.37
2018-05-21T12:13:53.275Z,24.35
2018-05-21T12:14:53.216Z,24.43
2018-05-21T12:15:53.191Z,24.32
2018-05-21T12:16:53.096Z,24.31
2018-05-21T12:17:53.019Z,24.35
2018-05-21T12:18:52.975Z,24.30
2018-05-21T12:19:52.910Z,24.34
2018-05-21T12:20:52.846Z,24.34
2018-05-21T12:21:52.787Z,24.39
2018-05-21T12:22:52.721Z,24.39
2018-05-21T12:23:52.665Z,24.46
2018-05-21T12:24:52.604Z,24.32
2018-05-21T12:25:52.535Z,24.37
2018-05-21T12:26:52.491Z,24.42
2018-05-21T12:27:52.413Z,24.34
2018-05-21T12:28:52.368Z,24.43
2018-05-21T12:29:52.286Z,24.43
2018-05-21T12:30:52.234Z,24.34
2018-05-21T12:31:52.181Z,24.35
2018-05-21T12:32:52.108Z,24.35
2018-05-21T12:33:52.050Z,24.32
2018-05-21T12:34:51.983Z,24.34
2018-05-21T12:35:51.959Z,24.31
2018-05-21T12:36:51.857Z,24.32
2018-05-21T12:37:51.804Z,24.32
2018-05-21T12:38:51.746Z,24.39
2018-05-21T12:39:51.685Z,24.40
2018-05-21T12:40:51.615Z,24.37
2018-05-21T12:41:51.566Z,24.32
2018-05-21T12:42:51.491Z,24.37
2018-05-21T12:43:51.438Z,24.35
2018-05-21T12:44:51.375Z,24.46
2018-05-21T12:45:51.311Z,24.45
2018-05-21T12:46:51.249Z,24.45
2018-05-21T12:47:51.187Z,24.39
2018-05-21T12:48:51.138Z,24.45
2018-05-21T12:49:51.073Z,24.45
2018-05-21T12:50:51.001Z,24.43
2018-05-21T12:51:50.935Z,24.52